sensor_id;sensor_type;location;lat;lon;timestamp;P1;durP1;ratioP1;P2;durP2;ratioP2
7989;SDS011;4040;42.848;23.034;2023-02-28T00:00:58;29.60;;;14.60;;
7989;SDS011;4040;42.848;23.034;2023-02-28T00:06:46;33.00;;;16.50;;
7989;SDS011;4040;42.848;23.034;2023-02-28T00:12:36;35.40;;;16.73;;
7989;SDS011;4040;42.848;23.034;2023-02-28T00:18:26;35.67;;;17.67;;
7989;SDS011;4040;42.848;23.034;2023-02-28T00:24:15;41.20;;;18.07;;
7989;SDS011;4040;42.848;23.034;2023-02-28T00:30:05;42.13;;;19.93;;
7989;SDS011;4040;42.848;23.034;2023-02-28T00:36:02;28.97;;;14.73;;
7989;SDS011;4040;42.848;23.034;2023-02-28T00:41:52;22.73;;;12.70;;
7989;SDS011;4040;42.848;23.034;2023-02-28T00:47:41;16.97;;;10.33;;
7989;SDS011;4040;42.848;23.034;2023-02-28T00:53:31;35.37;;;16.30;;
7989;SDS011;4040;42.848;23.034;2023-02-28T00:59:20;21.93;;;12.50;;
7989;SDS011;4040;42.848;23.034;2023-02-28T01:09:12;25.03;;;12.07;;
7989;SDS011;4040;42.848;23.034;2023-02-28T01:15:02;18.43;;;9.57;;
7989;SDS011;4040;42.848;23.034;2023-02-28T01:20:52;14.27;;;8.27;;
7989;SDS011;4040;42.848;23.034;2023-02-28T01:26:42;16.40;;;9.03;;
7989;SDS011;4040;42.848;23.034;2023-02-28T01:32:31;17.07;;;8.20;;
7989;SDS011;4040;42.848;23.034;2023-02-28T01:38:20;20.43;;;10.10;;
7989;SDS011;4040;42.848;23.034;2023-02-28T01:50:28;14.40;;;8.37;;
7989;SDS011;4040;42.848;23.034;2023-02-28T01:56:22;14.70;;;9.37;;
7989;SDS011;4040;42.848;23.034;2023-02-28T02:02:14;18.53;;;10.70;;
7989;SDS011;4040;42.848;23.034;2023-02-28T02:12:39;24.63;;;13.30;;
7989;SDS011;4040;42.848;23.034;2023-02-28T02:18:50;21.97;;;11.97;;
7989;SDS011;4040;42.848;23.034;2023-02-28T02:24:49;21.63;;;10.93;;
7989;SDS011;4040;42.848;23.034;2023-02-28T02:31:02;24.57;;;12.30;;
7989;SDS011;4040;42.848;23.034;2023-02-28T02:37:08;22.73;;;10.97;;
7989;SDS011;4040;42.848;23.034;2023-02-28T02:43:05;20.07;;;10.23;;
7989;SDS011;4040;42.848;23.034;2023-02-28T02:49:00;22.57;;;11.57;;
7989;SDS011;4040;42.848;23.034;2023-02-28T02:54:54;19.47;;;10.17;;
7989;SDS011;4040;42.848;23.034;2023-02-28T03:00:46;13.70;;;6.37;;
7989;SDS011;4040;42.848;23.034;2023-02-28T03:06:40;9.03;;;5.37;;
7989;SDS011;4040;42.848;23.034;2023-02-28T03:12:52;8.20;;;6.20;;
7989;SDS011;4040;42.848;23.034;2023-02-28T03:18:50;12.23;;;7.27;;
7989;SDS011;4040;42.848;23.034;2023-02-28T03:24:49;10.30;;;7.10;;
7989;SDS011;4040;42.848;23.034;2023-02-28T03:30:47;14.57;;;8.60;;
7989;SDS011;4040;42.848;23.034;2023-02-28T03:36:41;12.53;;;7.17;;
7989;SDS011;4040;42.848;23.034;2023-02-28T03:42:35;15.07;;;8.40;;
7989;SDS011;4040;42.848;23.034;2023-02-28T03:48:30;8.93;;;7.10;;
7989;SDS011;4040;42.848;23.034;2023-02-28T03:54:24;15.37;;;9.67;;
7989;SDS011;4040;42.848;23.034;2023-02-28T04:00:17;14.73;;;8.90;;
7989;SDS011;4040;42.848;23.034;2023-02-28T04:06:14;14.00;;;9.83;;
7989;SDS011;4040;42.848;23.034;2023-02-28T04:12:05;15.03;;;10.13;;
7989;SDS011;4040;42.848;23.034;2023-02-28T04:17:54;19.73;;;11.73;;
7989;SDS011;4040;42.848;23.034;2023-02-28T04:23:44;24.00;;;12.47;;
7989;SDS011;4040;42.848;23.034;2023-02-28T04:29:33;29.33;;;14.23;;
7989;SDS011;4040;42.848;23.034;2023-02-28T04:35:22;26.80;;;13.67;;
7989;SDS011;4040;42.848;23.034;2023-02-28T04:41:12;19.73;;;9.73;;
7989;SDS011;4040;42.848;23.034;2023-02-28T04:47:01;17.97;;;9.47;;
7989;SDS011;4040;42.848;23.034;2023-02-28T04:52:50;27.57;;;15.80;;
7989;SDS011;4040;42.848;23.034;2023-02-28T04:58:40;32.03;;;16.10;;
7989;SDS011;4040;42.848;23.034;2023-02-28T05:04:29;26.00;;;11.40;;
7989;SDS011;4040;42.848;23.034;2023-02-28T05:14:23;21.07;;;10.80;;
7989;SDS011;4040;42.848;23.034;2023-02-28T05:20:12;44.57;;;21.57;;
7989;SDS011;4040;42.848;23.034;2023-02-28T05:26:01;34.00;;;17.43;;
7989;SDS011;4040;42.848;23.034;2023-02-28T05:31:51;49.73;;;22.10;;
7989;SDS011;4040;42.848;23.034;2023-02-28T05:37:40;55.67;;;25.87;;
7989;SDS011;4040;42.848;23.034;2023-02-28T05:43:29;60.83;;;24.37;;
7989;SDS011;4040;42.848;23.034;2023-02-28T05:49:19;47.70;;;20.23;;
7989;SDS011;4040;42.848;23.034;2023-02-28T05:55:08;64.47;;;22.53;;
7989;SDS011;4040;42.848;23.034;2023-02-28T06:00:57;47.50;;;19.37;;
7989;SDS011;4040;42.848;23.034;2023-02-28T06:06:48;58.43;;;21.60;;
7989;SDS011;4040;42.848;23.034;2023-02-28T06:16:49;50.23;;;19.60;;
7989;SDS011;4040;42.848;23.034;2023-02-28T06:22:40;55.77;;;23.33;;
7989;SDS011;4040;42.848;23.034;2023-02-28T06:28:29;69.03;;;25.63;;
7989;SDS011;4040;42.848;23.034;2023-02-28T06:34:18;75.77;;;27.47;;
7989;SDS011;4040;42.848;23.034;2023-02-28T06:40:09;34.90;;;15.00;;
7989;SDS011;4040;42.848;23.034;2023-02-28T06:46:00;36.90;;;13.80;;
7989;SDS011;4040;42.848;23.034;2023-02-28T06:51:51;33.67;;;13.87;;
7989;SDS011;4040;42.848;23.034;2023-02-28T06:57:41;30.67;;;11.67;;
7989;SDS011;4040;42.848;23.034;2023-02-28T07:03:29;30.60;;;11.73;;
7989;SDS011;4040;42.848;23.034;2023-02-28T07:09:18;29.47;;;11.47;;
7989;SDS011;4040;42.848;23.034;2023-02-28T07:19:30;31.63;;;12.90;;
7989;SDS011;4040;42.848;23.034;2023-02-28T07:25:19;36.37;;;13.83;;
7989;SDS011;4040;42.848;23.034;2023-02-28T07:31:08;32.57;;;15.40;;
7989;SDS011;4040;42.848;23.034;2023-02-28T07:36:59;51.10;;;22.77;;
7989;SDS011;4040;42.848;23.034;2023-02-28T07:42:50;39.33;;;15.20;;
7989;SDS011;4040;42.848;23.034;2023-02-28T07:48:39;41.10;;;17.80;;
7989;SDS011;4040;42.848;23.034;2023-02-28T07:54:30;36.37;;;17.53;;
7989;SDS011;4040;42.848;23.034;2023-02-28T08:00:19;31.10;;;13.17;;
7989;SDS011;4040;42.848;23.034;2023-02-28T08:06:09;31.97;;;14.27;;
7989;SDS011;4040;42.848;23.034;2023-02-28T08:12:06;31.93;;;12.00;;
7989;SDS011;4040;42.848;23.034;2023-02-28T08:22:17;43.97;;;17.60;;
7989;SDS011;4040;42.848;23.034;2023-02-28T08:28:08;38.63;;;17.93;;
7989;SDS011;4040;42.848;23.034;2023-02-28T08:33:56;28.63;;;12.23;;
7989;SDS011;4040;42.848;23.034;2023-02-28T08:39:46;61.10;;;32.87;;
7989;SDS011;4040;42.848;23.034;2023-02-28T08:45:36;34.40;;;15.67;;
7989;SDS011;4040;42.848;23.034;2023-02-28T08:51:25;33.00;;;15.10;;
7989;SDS011;4040;42.848;23.034;2023-02-28T08:57:14;34.63;;;16.03;;
7989;SDS011;4040;42.848;23.034;2023-02-28T09:03:05;33.27;;;16.37;;
7989;SDS011;4040;42.848;23.034;2023-02-28T09:08:55;35.50;;;14.00;;
7989;SDS011;4040;42.848;23.034;2023-02-28T09:14:46;30.37;;;13.60;;
7989;SDS011;4040;42.848;23.034;2023-02-28T09:24:58;37.13;;;15.80;;
7989;SDS011;4040;42.848;23.034;2023-02-28T09:30:47;39.33;;;18.57;;
7989;SDS011;4040;42.848;23.034;2023-02-28T09:36:37;58.60;;;27.40;;
7989;SDS011;4040;42.848;23.034;2023-02-28T09:42:29;29.40;;;15.87;;
7989;SDS011;4040;42.848;23.034;2023-02-28T09:48:21;42.43;;;17.63;;
7989;SDS011;4040;42.848;23.034;2023-02-28T09:54:15;29.83;;;15.37;;
7989;SDS011;4040;42.848;23.034;2023-02-28T10:00:10;32.57;;;15.60;;
7989;SDS011;4040;42.848;23.034;2023-02-28T10:06:06;29.10;;;16.50;;
7989;SDS011;4040;42.848;23.034;2023-02-28T10:12:01;28.47;;;16.03;;
7989;SDS011;4040;42.848;23.034;2023-02-28T10:17:56;28.83;;;14.53;;
7989;SDS011;4040;42.848;23.034;2023-02-28T10:28:10;26.43;;;13.30;;
7989;SDS011;4040;42.848;23.034;2023-02-28T10:34:02;29.80;;;13.53;;
7989;SDS011;4040;42.848;23.034;2023-02-28T10:39:52;24.27;;;14.53;;
7989;SDS011;4040;42.848;23.034;2023-02-28T10:45:51;25.80;;;13.30;;
7989;SDS011;4040;42.848;23.034;2023-02-28T10:51:44;28.17;;;12.60;;
7989;SDS011;4040;42.848;23.034;2023-02-28T10:57:55;31.83;;;18.57;;
7989;SDS011;4040;42.848;23.034;2023-02-28T11:03:44;22.53;;;13.53;;
7989;SDS011;4040;42.848;23.034;2023-02-28T11:09:35;23.93;;;13.67;;
7989;SDS011;4040;42.848;23.034;2023-02-28T11:15:27;33.93;;;16.60;;
7989;SDS011;4040;42.848;23.034;2023-02-28T11:21:19;44.97;;;18.83;;
7989;SDS011;4040;42.848;23.034;2023-02-28T11:27:26;17.50;;;9.20;;
7989;SDS011;4040;42.848;23.034;2023-02-28T11:33:40;21.30;;;9.25;;
7989;SDS011;4040;42.848;23.034;2023-02-28T11:39:31;18.47;;;8.43;;
7989;SDS011;4040;42.848;23.034;2023-02-28T11:45:34;18.27;;;8.93;;
7989;SDS011;4040;42.848;23.034;2023-02-28T11:51:32;24.43;;;9.43;;
7989;SDS011;4040;42.848;23.034;2023-02-28T11:57:28;25.60;;;10.27;;
7989;SDS011;4040;42.848;23.034;2023-02-28T12:03:30;21.30;;;10.20;;
7989;SDS011;4040;42.848;23.034;2023-02-28T12:09:40;21.43;;;11.20;;
7989;SDS011;4040;42.848;23.034;2023-02-28T12:22:01;29.07;;;12.07;;
7989;SDS011;4040;42.848;23.034;2023-02-28T12:28:09;19.30;;;9.87;;
7989;SDS011;4040;42.848;23.034;2023-02-28T12:34:03;33.07;;;16.70;;
7989;SDS011;4040;42.848;23.034;2023-02-28T12:40:00;20.30;;;10.70;;
7989;SDS011;4040;42.848;23.034;2023-02-28T12:45:53;20.23;;;10.77;;
7989;SDS011;4040;42.848;23.034;2023-02-28T12:51:44;22.37;;;11.00;;
7989;SDS011;4040;42.848;23.034;2023-02-28T12:57:38;19.17;;;9.53;;
7989;SDS011;4040;42.848;23.034;2023-02-28T13:03:38;22.57;;;9.70;;
7989;SDS011;4040;42.848;23.034;2023-02-28T13:09:39;23.50;;;9.90;;
7989;SDS011;4040;42.848;23.034;2023-02-28T13:15:29;23.80;;;10.37;;
7989;SDS011;4040;42.848;23.034;2023-02-28T13:21:22;20.53;;;7.77;;
7989;SDS011;4040;42.848;23.034;2023-02-28T13:44:13;20.73;;;8.67;;
7989;SDS011;4040;42.848;23.034;2023-02-28T13:56:19;17.43;;;8.77;;
7989;SDS011;4040;42.848;23.034;2023-02-28T14:02:30;21.87;;;9.73;;
7989;SDS011;4040;42.848;23.034;2023-02-28T14:08:33;19.10;;;8.80;;
7989;SDS011;4040;42.848;23.034;2023-02-28T14:20:46;22.87;;;12.27;;
7989;SDS011;4040;42.848;23.034;2023-02-28T14:26:41;21.00;;;11.33;;
7989;SDS011;4040;42.848;23.034;2023-02-28T14:32:47;19.93;;;10.90;;
7989;SDS011;4040;42.848;23.034;2023-02-28T14:38:47;23.53;;;11.67;;
7989;SDS011;4040;42.848;23.034;2023-02-28T14:44:39;24.07;;;12.63;;
7989;SDS011;4040;42.848;23.034;2023-02-28T14:50:30;27.77;;;12.30;;
7989;SDS011;4040;42.848;23.034;2023-02-28T14:56:22;21.63;;;12.77;;
7989;SDS011;4040;42.848;23.034;2023-02-28T15:02:17;18.50;;;11.37;;
7989;SDS011;4040;42.848;23.034;2023-02-28T15:08:12;19.97;;;11.57;;
7989;SDS011;4040;42.848;23.034;2023-02-28T15:14:03;23.00;;;12.67;;
7989;SDS011;4040;42.848;23.034;2023-02-28T15:19:52;16.77;;;10.50;;
7989;SDS011;4040;42.848;23.034;2023-02-28T15:25:43;23.20;;;12.23;;
7989;SDS011;4040;42.848;23.034;2023-02-28T15:31:33;16.27;;;6.90;;
7989;SDS011;4040;42.848;23.034;2023-02-28T15:37:27;19.60;;;7.47;;
7989;SDS011;4040;42.848;23.034;2023-02-28T15:43:29;14.33;;;6.53;;
7989;SDS011;4040;42.848;23.034;2023-02-28T15:49:19;18.90;;;7.47;;
7989;SDS011;4040;42.848;23.034;2023-02-28T15:55:10;15.47;;;7.57;;
7989;SDS011;4040;42.848;23.034;2023-02-28T16:01:16;7.63;;;4.43;;
7989;SDS011;4040;42.848;23.034;2023-02-28T16:07:11;8.53;;;5.73;;
7989;SDS011;4040;42.848;23.034;2023-02-28T16:13:02;25.13;;;16.90;;
7989;SDS011;4040;42.848;23.034;2023-02-28T16:18:52;20.53;;;11.47;;
7989;SDS011;4040;42.848;23.034;2023-02-28T16:24:41;13.17;;;6.60;;
7989;SDS011;4040;42.848;23.034;2023-02-28T16:34:53;30.00;;;26.87;;
7989;SDS011;4040;42.848;23.034;2023-02-28T16:40:41;16.07;;;10.77;;
7989;SDS011;4040;42.848;23.034;2023-02-28T16:46:31;14.67;;;7.27;;
7989;SDS011;4040;42.848;23.034;2023-02-28T16:52:24;18.13;;;8.33;;
7989;SDS011;4040;42.848;23.034;2023-02-28T16:58:13;19.90;;;7.50;;
7989;SDS011;4040;42.848;23.034;2023-02-28T17:04:04;11.80;;;5.47;;
7989;SDS011;4040;42.848;23.034;2023-02-28T17:09:54;11.60;;;6.77;;
7989;SDS011;4040;42.848;23.034;2023-02-28T17:15:42;14.17;;;6.27;;
7989;SDS011;4040;42.848;23.034;2023-02-28T17:21:34;15.60;;;7.60;;
7989;SDS011;4040;42.848;23.034;2023-02-28T17:27:25;18.37;;;7.27;;
7989;SDS011;4040;42.848;23.034;2023-02-28T17:37:35;30.47;;;12.03;;
7989;SDS011;4040;42.848;23.034;2023-02-28T17:43:25;16.80;;;7.97;;
7989;SDS011;4040;42.848;23.034;2023-02-28T17:49:15;11.17;;;6.00;;
7989;SDS011;4040;42.848;23.034;2023-02-28T17:55:05;13.53;;;6.57;;
7989;SDS011;4040;42.848;23.034;2023-02-28T18:00:55;17.67;;;7.20;;
7989;SDS011;4040;42.848;23.034;2023-02-28T18:06:44;14.07;;;6.60;;
7989;SDS011;4040;42.848;23.034;2023-02-28T18:12:36;11.47;;;6.70;;
7989;SDS011;4040;42.848;23.034;2023-02-28T18:18:26;10.07;;;5.27;;
7989;SDS011;4040;42.848;23.034;2023-02-28T18:24:15;6.70;;;4.47;;
7989;SDS011;4040;42.848;23.034;2023-02-28T18:30:04;7.27;;;3.60;;
7989;SDS011;4040;42.848;23.034;2023-02-28T18:40:17;8.73;;;5.57;;
7989;SDS011;4040;42.848;23.034;2023-02-28T18:46:07;8.47;;;4.30;;
7989;SDS011;4040;42.848;23.034;2023-02-28T18:51:56;12.67;;;4.57;;
7989;SDS011;4040;42.848;23.034;2023-02-28T18:57:47;8.17;;;3.60;;
7989;SDS011;4040;42.848;23.034;2023-02-28T19:03:35;9.30;;;4.03;;
7989;SDS011;4040;42.848;23.034;2023-02-28T19:09:24;7.60;;;4.00;;
7989;SDS011;4040;42.848;23.034;2023-02-28T19:15:14;7.40;;;4.00;;
7989;SDS011;4040;42.848;23.034;2023-02-28T19:21:05;11.63;;;4.00;;
7989;SDS011;4040;42.848;23.034;2023-02-28T19:26:54;14.00;;;5.13;;
7989;SDS011;4040;42.848;23.034;2023-02-28T19:32:44;9.43;;;4.10;;
7989;SDS011;4040;42.848;23.034;2023-02-28T19:42:55;6.30;;;3.37;;
7989;SDS011;4040;42.848;23.034;2023-02-28T19:48:45;6.10;;;3.23;;
7989;SDS011;4040;42.848;23.034;2023-02-28T19:54:34;9.67;;;4.40;;
7989;SDS011;4040;42.848;23.034;2023-02-28T20:00:23;4.37;;;2.80;;
7989;SDS011;4040;42.848;23.034;2023-02-28T20:06:13;10.53;;;5.53;;
7989;SDS011;4040;42.848;23.034;2023-02-28T20:12:02;6.40;;;3.40;;
7989;SDS011;4040;42.848;23.034;2023-02-28T20:17:51;4.17;;;2.53;;
7989;SDS011;4040;42.848;23.034;2023-02-28T20:23:45;7.23;;;4.10;;
7989;SDS011;4040;42.848;23.034;2023-02-28T20:29:34;8.33;;;4.27;;
7989;SDS011;4040;42.848;23.034;2023-02-28T20:35:23;4.97;;;2.83;;
7989;SDS011;4040;42.848;23.034;2023-02-28T20:45:35;8.20;;;4.53;;
7989;SDS011;4040;42.848;23.034;2023-02-28T20:51:23;6.13;;;3.43;;
7989;SDS011;4040;42.848;23.034;2023-02-28T20:57:12;3.67;;;2.63;;
7989;SDS011;4040;42.848;23.034;2023-02-28T21:03:02;4.30;;;2.93;;
7989;SDS011;4040;42.848;23.034;2023-02-28T21:08:51;6.07;;;3.63;;
7989;SDS011;4040;42.848;23.034;2023-02-28T21:14:39;5.93;;;3.63;;
7989;SDS011;4040;42.848;23.034;2023-02-28T21:20:30;4.03;;;2.97;;
7989;SDS011;4040;42.848;23.034;2023-02-28T21:26:19;5.70;;;3.87;;
7989;SDS011;4040;42.848;23.034;2023-02-28T21:32:09;10.23;;;5.20;;
7989;SDS011;4040;42.848;23.034;2023-02-28T21:37:59;7.40;;;5.03;;
7989;SDS011;4040;42.848;23.034;2023-02-28T21:48:09;7.73;;;4.90;;
7989;SDS011;4040;42.848;23.034;2023-02-28T21:54:00;7.87;;;4.00;;
7989;SDS011;4040;42.848;23.034;2023-02-28T21:59:49;7.50;;;3.87;;
7989;SDS011;4040;42.848;23.034;2023-02-28T22:05:38;7.17;;;4.30;;
7989;SDS011;4040;42.848;23.034;2023-02-28T22:11:29;8.30;;;4.90;;
7989;SDS011;4040;42.848;23.034;2023-02-28T22:17:17;8.50;;;4.93;;
7989;SDS011;4040;42.848;23.034;2023-02-28T22:23:06;6.83;;;4.67;;
7989;SDS011;4040;42.848;23.034;2023-02-28T22:28:57;7.40;;;4.53;;
7989;SDS011;4040;42.848;23.034;2023-02-28T22:34:45;6.83;;;5.10;;
7989;SDS011;4040;42.848;23.034;2023-02-28T22:41:07;9.37;;;4.70;;
7989;SDS011;4040;42.848;23.034;2023-02-28T22:51:21;5.33;;;3.37;;
7989;SDS011;4040;42.848;23.034;2023-02-28T22:57:11;4.87;;;3.30;;
7989;SDS011;4040;42.848;23.034;2023-02-28T23:08:27;5.67;;;3.90;;
7989;SDS011;4040;42.848;23.034;2023-02-28T23:14:16;7.23;;;3.50;;
7989;SDS011;4040;42.848;23.034;2023-02-28T23:20:06;6.07;;;3.73;;
7989;SDS011;4040;42.848;23.034;2023-02-28T23:25:57;4.63;;;3.17;;
7989;SDS011;4040;42.848;23.034;2023-02-28T23:31:46;4.57;;;3.00;;
7989;SDS011;4040;42.848;23.034;2023-02-28T23:37:35;6.27;;;2.87;;
7989;SDS011;4040;42.848;23.034;2023-02-28T23:43:26;5.43;;;3.20;;
7989;SDS011;4040;42.848;23.034;2023-02-28T23:49:15;2.57;;;2.10;;
7989;SDS011;4040;42.848;23.034;2023-02-28T23:55:06;3.57;;;2.57;;
